Naniwa Maru No.21 — JG5648 — position and weather

sailwx.info

Track history (hours):
 
Tides and Currents Weather Stations Pressure Air Temp Water Temp Dewpoint Dewpoint Depression Visibility Wind Speed Wind Dir Waves Ship Positions

Naniwa Maru No.21

Last reported at 2017-Feb-27 14:07 UTC. Time now 2017-Feb-27 20:28 UTC.
Position N 34°36' E 135°03'.

Length 71 m; draft 5.2 m.

Type: Tanker. MMSI: 431301595.

Date/timePositionNaut miles runAvg speedWind from/ knotsBaromVisibWave heightAir tempDewpointWater temp
2017-Feb-27 14:07N 34°36' E 135°03'813.6
2017-Feb-27 13:33N 34°35' E 135°13'11 5.1
2017-Feb-27 11:25N 34°33' E 135°26'1 0.2
2017-Feb-27 04:29N 34°33' E 135°24'5 4.8
2017-Feb-27 03:31N 34°33' E 135°18'0 0.0
2017-Feb-27 01:19N 34°33' E 135°18'0 0.0
2017-Feb-27 00:25N 34°33' E 135°18'2 2.2
2017-Feb-26 23:33N 34°33' E 135°16'1311.9
2017-Feb-26 22:29N 34°37' E 135°01'12212.3
2017-Feb-26 12:33N 33°57' E 132°42'1614.3
2017-Feb-26 11:27N 33°47' E 132°27'  
2017-Feb-23 21:34N 33°51' E 132°33'13111.9
2017-Feb-23 10:31N 34°37' E 135°01'1313.2
2017-Feb-23 09:33N 34°34' E 135°16'5 0.6
2017-Feb-23 01:31N 34°33' E 135°22'1414.2
2017-Feb-23 00:33N 34°35' E 135°06'12311.8
2017-Feb-22 14:04N 33°58' E 132°43'712.3
2017-Feb-22 13:32N 33°54' E 132°37'7 0.2
2017-Feb-21 08:28N 33°49' E 132°31'1213.0
2017-Feb-21 07:33N 33°57' E 132°42'1 0.0
2017-Feb-20 13:32N 33°57' E 132°42'1212.4
2017-Feb-20 12:33N 33°49' E 132°31'1 0.0
2017-Feb-18 18:29N 33°50' E 132°31'1212.7
2017-Feb-18 17:33N 33°57' E 132°42'12211.1
2017-Feb-18 06:32N 34°31' E 135°04'2411.8
2017-Feb-18 04:33N 34°07' E 135°07'1 0.6
2017-Feb-18 03:33N 34°07' E 135°07'0 0.0
2017-Feb-18 02:32N 34°07' E 135°07'0 0.0
2017-Feb-18 01:33N 34°07' E 135°07'0 0.0
2017-Feb-18 00:32N 34°07' E 135°07'12212.2
2017-Feb-17 14:33N 33°56' E 132°41'  
Track history (hours):
 
Tides and Currents Weather Stations Pressure Air Temp Water Temp Dewpoint Dewpoint Depression Visibility Wind Speed Wind Dir Waves Ship Positions

Naniwa Maru No.21

Last reported at 2017-Feb-27 14:07 UTC. Time now 2017-Feb-27 20:28 UTC.
Position N 34°36' E 135°03'.

Length 71 m; draft 5.2 m.

Type: Tanker. MMSI: 431301595.

Date/timePositionNaut miles runAvg speedWind from/ knotsBaromVisibWave heightAir tempDewpointWater temp
2017-Feb-27 14:07N 34°36' E 135°03'813.6
2017-Feb-27 13:33N 34°35' E 135°13'11 5.1
2017-Feb-27 11:25N 34°33' E 135°26'1 0.2
2017-Feb-27 04:29N 34°33' E 135°24'5 4.8
2017-Feb-27 03:31N 34°33' E 135°18'0 0.0
2017-Feb-27 01:19N 34°33' E 135°18'0 0.0
2017-Feb-27 00:25N 34°33' E 135°18'2 2.2
2017-Feb-26 23:33N 34°33' E 135°16'1311.9
2017-Feb-26 22:29N 34°37' E 135°01'12212.3
2017-Feb-26 12:33N 33°57' E 132°42'1614.3
2017-Feb-26 11:27N 33°47' E 132°27'  
2017-Feb-23 21:34N 33°51' E 132°33'13111.9
2017-Feb-23 10:31N 34°37' E 135°01'1313.2
2017-Feb-23 09:33N 34°34' E 135°16'5 0.6
2017-Feb-23 01:31N 34°33' E 135°22'1414.2
2017-Feb-23 00:33N 34°35' E 135°06'12311.8
2017-Feb-22 14:04N 33°58' E 132°43'712.3
2017-Feb-22 13:32N 33°54' E 132°37'7 0.2
2017-Feb-21 08:28N 33°49' E 132°31'1213.0
2017-Feb-21 07:33N 33°57' E 132°42'1 0.0
2017-Feb-20 13:32N 33°57' E 132°42'1212.4
2017-Feb-20 12:33N 33°49' E 132°31'1 0.0
2017-Feb-18 18:29N 33°50' E 132°31'1212.7
2017-Feb-18 17:33N 33°57' E 132°42'12211.1
2017-Feb-18 06:32N 34°31' E 135°04'2411.8
2017-Feb-18 04:33N 34°07' E 135°07'1 0.6
2017-Feb-18 03:33N 34°07' E 135°07'0 0.0
2017-Feb-18 02:32N 34°07' E 135°07'0 0.0
2017-Feb-18 01:33N 34°07' E 135°07'0 0.0
2017-Feb-18 00:32N 34°07' E 135°07'12212.2
2017-Feb-17 14:33N 33°56' E 132°41'  

Dump ship's entire track history